sensor_id;sensor_type;location;lat;lon;timestamp;pressure;altitude;pressure_sealevel;temperature;humidity
38253;BME280;24785;52.372;20.672;2023-02-24T00:08:58;99913.13;;;2.40;100.00
38253;BME280;24785;52.372;20.672;2023-02-24T00:18:59;99898.50;;;2.49;100.00
38253;BME280;24785;52.372;20.672;2023-02-24T00:29:04;99866.16;;;2.59;100.00
38253;BME280;24785;52.372;20.672;2023-02-24T00:39:07;99845.91;;;2.64;100.00
38253;BME280;24785;52.372;20.672;2023-02-24T00:49:16;99837.03;;;2.70;100.00
38253;BME280;24785;52.372;20.672;2023-02-24T00:59:18;99828.53;;;2.68;100.00
38253;BME280;24785;52.372;20.672;2023-02-24T01:09:19;99816.44;;;2.72;100.00
38253;BME280;24785;52.372;20.672;2023-02-24T01:19:24;99790.84;;;2.78;100.00
38253;BME280;24785;52.372;20.672;2023-02-24T01:29:30;99764.72;;;2.81;100.00
38253;BME280;24785;52.372;20.672;2023-02-24T01:39:31;99761.88;;;3.00;100.00
38253;BME280;24785;52.372;20.672;2023-02-24T01:59:35;99742.31;;;3.17;100.00
38253;BME280;24785;52.372;20.672;2023-02-24T02:09:37;99727.28;;;3.23;100.00
38253;BME280;24785;52.372;20.672;2023-02-24T02:20:05;99715.97;;;3.44;100.00
38253;BME280;24785;52.372;20.672;2023-02-24T02:40:47;99691.84;;;3.63;100.00
38253;BME280;24785;52.372;20.672;2023-02-24T02:51:04;99673.28;;;3.63;100.00
38253;BME280;24785;52.372;20.672;2023-02-24T03:01:06;99666.69;;;3.65;100.00
38253;BME280;24785;52.372;20.672;2023-02-24T03:11:11;99660.16;;;3.73;100.00
38253;BME280;24785;52.372;20.672;2023-02-24T03:21:17;99637.81;;;3.64;100.00
38253;BME280;24785;52.372;20.672;2023-02-24T03:31:29;99638.47;;;3.76;100.00
38253;BME280;24785;52.372;20.672;2023-02-24T03:41:50;99625.34;;;3.86;100.00
38253;BME280;24785;52.372;20.672;2023-02-24T04:02:05;99593.00;;;4.11;100.00
38253;BME280;24785;52.372;20.672;2023-02-24T04:12:15;99581.25;;;4.29;100.00
38253;BME280;24785;52.372;20.672;2023-02-24T04:22:21;99563.66;;;4.23;100.00
38253;BME280;24785;52.372;20.672;2023-02-24T04:32:27;99545.16;;;4.28;100.00
38253;BME280;24785;52.372;20.672;2023-02-24T04:42:29;99538.63;;;4.40;100.00
38253;BME280;24785;52.372;20.672;2023-02-24T04:52:29;99531.50;;;4.46;100.00
38253;BME280;24785;52.372;20.672;2023-02-24T05:02:30;99517.38;;;4.35;100.00
38253;BME280;24785;52.372;20.672;2023-02-24T05:12:31;99495.41;;;4.45;100.00
38253;BME280;24785;52.372;20.672;2023-02-24T05:22:32;99490.13;;;4.50;100.00
38253;BME280;24785;52.372;20.672;2023-02-24T05:32:33;99484.09;;;4.65;100.00
38253;BME280;24785;52.372;20.672;2023-02-24T05:42:34;99489.19;;;4.71;100.00
38253;BME280;24785;52.372;20.672;2023-02-24T05:52:35;99482.59;;;4.74;100.00
38253;BME280;24785;52.372;20.672;2023-02-24T06:02:36;99481.00;;;4.78;100.00
38253;BME280;24785;52.372;20.672;2023-02-24T06:12:37;99467.72;;;4.73;100.00
38253;BME280;24785;52.372;20.672;2023-02-24T06:22:39;99453.97;;;4.81;100.00
38253;BME280;24785;52.372;20.672;2023-02-24T06:32:41;99441.00;;;4.95;100.00
38253;BME280;24785;52.372;20.672;2023-02-24T06:42:48;99428.25;;;4.97;100.00
38253;BME280;24785;52.372;20.672;2023-02-24T06:52:53;99427.50;;;5.17;100.00
38253;BME280;24785;52.372;20.672;2023-02-24T07:02:54;99420.94;;;5.45;100.00
38253;BME280;24785;52.372;20.672;2023-02-24T07:12:56;99415.63;;;5.45;100.00
38253;BME280;24785;52.372;20.672;2023-02-24T07:22:57;99407.16;;;5.68;100.00
38253;BME280;24785;52.372;20.672;2023-02-24T07:32:59;99406.63;;;5.81;100.00
38253;BME280;24785;52.372;20.672;2023-02-24T07:43:00;99402.91;;;5.97;100.00
38253;BME280;24785;52.372;20.672;2023-02-24T07:53:01;99395.97;;;6.02;100.00
38253;BME280;24785;52.372;20.672;2023-02-24T08:03:04;99392.78;;;6.10;100.00
38253;BME280;24785;52.372;20.672;2023-02-24T08:13:05;99387.72;;;6.08;100.00
38253;BME280;24785;52.372;20.672;2023-02-24T08:23:07;99365.66;;;6.18;100.00
38253;BME280;24785;52.372;20.672;2023-02-24T08:33:10;99376.81;;;6.20;100.00
38253;BME280;24785;52.372;20.672;2023-02-24T08:43:28;99384.28;;;6.08;100.00
38253;BME280;24785;52.372;20.672;2023-02-24T08:53:36;99355.81;;;6.08;100.00
38253;BME280;24785;52.372;20.672;2023-02-24T09:03:40;99347.34;;;5.81;100.00
38253;BME280;24785;52.372;20.672;2023-02-24T09:13:45;99332.97;;;5.66;100.00
38253;BME280;24785;52.372;20.672;2023-02-24T09:23:54;99314.66;;;5.75;100.00
38253;BME280;24785;52.372;20.672;2023-02-24T09:33:55;99291.78;;;5.69;100.00
38253;BME280;24785;52.372;20.672;2023-02-24T09:44:11;99291.53;;;5.50;100.00
38253;BME280;24785;52.372;20.672;2023-02-24T09:54:19;99267.13;;;5.23;100.00
38253;BME280;24785;52.372;20.672;2023-02-24T10:24:46;99235.97;;;5.69;100.00
38253;BME280;24785;52.372;20.672;2023-02-24T10:34:52;99250.56;;;5.82;100.00
38253;BME280;24785;52.372;20.672;2023-02-24T10:45:06;99245.47;;;6.00;100.00
38253;BME280;24785;52.372;20.672;2023-02-24T10:55:27;99246.00;;;6.03;100.00
38253;BME280;24785;52.372;20.672;2023-02-24T11:05:53;99228.91;;;6.19;100.00
38253;BME280;24785;52.372;20.672;2023-02-24T11:16:08;99229.41;;;6.26;100.00
38253;BME280;24785;52.372;20.672;2023-02-24T11:26:35;99198.41;;;6.50;100.00
38253;BME280;24785;52.372;20.672;2023-02-24T11:46:58;99187.28;;;7.40;100.00
38253;BME280;24785;52.372;20.672;2023-02-24T11:57:02;99186.56;;;7.01;100.00
38253;BME280;24785;52.372;20.672;2023-02-24T12:07:41;99177.94;;;6.85;100.00
38253;BME280;24785;52.372;20.672;2023-02-24T12:59:17;99111.94;;;7.58;100.00
38253;BME280;24785;52.372;20.672;2023-02-24T13:09:23;99090.84;;;7.14;100.00
38253;BME280;24785;52.372;20.672;2023-02-24T13:19:28;99083.69;;;7.10;100.00
38253;BME280;24785;52.372;20.672;2023-02-24T13:29:29;99073.38;;;7.27;100.00
38253;BME280;24785;52.372;20.672;2023-02-24T13:39:36;99065.88;;;7.29;100.00
38253;BME280;24785;52.372;20.672;2023-02-24T13:50:21;99057.09;;;7.71;100.00
38253;BME280;24785;52.372;20.672;2023-02-24T14:10:16;99030.25;;;7.44;100.00
38253;BME280;24785;52.372;20.672;2023-02-24T14:20:19;99011.44;;;7.35;100.00
38253;BME280;24785;52.372;20.672;2023-02-24T14:30:33;99020.97;;;7.41;100.00
38253;BME280;24785;52.372;20.672;2023-02-24T14:40:35;99002.44;;;7.07;100.00
38253;BME280;24785;52.372;20.672;2023-02-24T14:50:36;99009.22;;;7.00;100.00
38253;BME280;24785;52.372;20.672;2023-02-24T15:00:42;99004.97;;;6.75;100.00
38253;BME280;24785;52.372;20.672;2023-02-24T15:10:46;98997.47;;;6.77;100.00
38253;BME280;24785;52.372;20.672;2023-02-24T15:20:58;98989.75;;;6.51;100.00
38253;BME280;24785;52.372;20.672;2023-02-24T15:41:13;99005.25;;;5.17;100.00
38253;BME280;24785;52.372;20.672;2023-02-24T16:01:21;99002.56;;;4.17;100.00
38253;BME280;24785;52.372;20.672;2023-02-24T16:11:25;99007.81;;;3.71;100.00
38253;BME280;24785;52.372;20.672;2023-02-24T16:21:27;99007.25;;;3.48;100.00
38253;BME280;24785;52.372;20.672;2023-02-24T16:31:28;99003.78;;;3.38;100.00
38253;BME280;24785;52.372;20.672;2023-02-24T16:41:29;99009.50;;;3.09;100.00
38253;BME280;24785;52.372;20.672;2023-02-24T16:51:30;98997.00;;;2.95;100.00
38253;BME280;24785;52.372;20.672;2023-02-24T17:01:31;98980.53;;;2.82;100.00
38253;BME280;24785;52.372;20.672;2023-02-24T17:11:33;98982.09;;;2.73;100.00
38253;BME280;24785;52.372;20.672;2023-02-24T17:21:38;98975.16;;;2.62;100.00
38253;BME280;24785;52.372;20.672;2023-02-24T17:31:40;98970.53;;;2.37;100.00
38253;BME280;24785;52.372;20.672;2023-02-24T17:41:41;98947.22;;;1.92;100.00
38253;BME280;24785;52.372;20.672;2023-02-24T17:51:42;98931.44;;;1.70;100.00
38253;BME280;24785;52.372;20.672;2023-02-24T18:01:43;98916.84;;;1.63;100.00
38253;BME280;24785;52.372;20.672;2023-02-24T18:11:44;98906.00;;;1.32;100.00
38253;BME280;24785;52.372;20.672;2023-02-24T18:21:45;98897.00;;;1.28;100.00
38253;BME280;24785;52.372;20.672;2023-02-24T18:31:46;98885.50;;;1.12;100.00
38253;BME280;24785;52.372;20.672;2023-02-24T18:41:47;98866.88;;;0.70;100.00
38253;BME280;24785;52.372;20.672;2023-02-24T18:51:48;98853.88;;;0.42;100.00
38253;BME280;24785;52.372;20.672;2023-02-24T19:01:49;98835.78;;;0.28;100.00
38253;BME280;24785;52.372;20.672;2023-02-24T19:11:51;98829.53;;;0.35;100.00
38253;BME280;24785;52.372;20.672;2023-02-24T19:21:53;98811.22;;;0.45;100.00
38253;BME280;24785;52.372;20.672;2023-02-24T19:31:55;98776.03;;;0.56;100.00
38253;BME280;24785;52.372;20.672;2023-02-24T19:41:57;98779.81;;;0.65;100.00
38253;BME280;24785;52.372;20.672;2023-02-24T19:51:58;98769.88;;;0.72;100.00
38253;BME280;24785;52.372;20.672;2023-02-24T20:02:00;98766.69;;;0.70;100.00
38253;BME280;24785;52.372;20.672;2023-02-24T20:12:01;98755.94;;;0.50;100.00
38253;BME280;24785;52.372;20.672;2023-02-24T20:22:03;98756.63;;;0.40;100.00
38253;BME280;24785;52.372;20.672;2023-02-24T20:32:04;98736.25;;;0.57;100.00
38253;BME280;24785;52.372;20.672;2023-02-24T20:42:05;98730.06;;;0.74;100.00
38253;BME280;24785;52.372;20.672;2023-02-24T20:52:06;98719.84;;;0.82;100.00
38253;BME280;24785;52.372;20.672;2023-02-24T21:02:09;98708.03;;;0.90;100.00
38253;BME280;24785;52.372;20.672;2023-02-24T21:12:10;98695.25;;;1.04;100.00
38253;BME280;24785;52.372;20.672;2023-02-24T21:22:11;98686.81;;;1.07;100.00
38253;BME280;24785;52.372;20.672;2023-02-24T21:32:12;98672.38;;;1.14;100.00
38253;BME280;24785;52.372;20.672;2023-02-24T21:42:13;98649.47;;;1.25;100.00
38253;BME280;24785;52.372;20.672;2023-02-24T21:52:15;98629.22;;;1.41;100.00
38253;BME280;24785;52.372;20.672;2023-02-24T22:02:16;98615.06;;;1.57;100.00
38253;BME280;24785;52.372;20.672;2023-02-24T22:12:17;98593.19;;;1.72;100.00
38253;BME280;24785;52.372;20.672;2023-02-24T22:22:18;98584.75;;;1.85;100.00
38253;BME280;24785;52.372;20.672;2023-02-24T22:32:18;98574.75;;;2.02;100.00
38253;BME280;24785;52.372;20.672;2023-02-24T22:42:19;98567.63;;;2.18;100.00
38253;BME280;24785;52.372;20.672;2023-02-24T22:52:20;98554.16;;;2.25;100.00
38253;BME280;24785;52.372;20.672;2023-02-24T23:02:21;98550.44;;;2.26;100.00
38253;BME280;24785;52.372;20.672;2023-02-24T23:12:22;98550.72;;;2.29;100.00
38253;BME280;24785;52.372;20.672;2023-02-24T23:22:23;98538.56;;;2.28;100.00
38253;BME280;24785;52.372;20.672;2023-02-24T23:32:23;98529.56;;;2.34;100.00
38253;BME280;24785;52.372;20.672;2023-02-24T23:42:24;98492.06;;;2.37;100.00
38253;BME280;24785;52.372;20.672;2023-02-24T23:52:26;98475.91;;;2.29;100.00
